createdAt,value
2023-04-21T00:00:56.561Z,10.50
2023-04-21T00:03:24.438Z,10.80
2023-04-21T00:05:52.305Z,11.00
2023-04-21T00:08:19.880Z,10.90
2023-04-21T00:10:47.282Z,10.80
2023-04-21T00:13:14.697Z,10.70
2023-04-21T00:15:41.939Z,10.70
2023-04-21T00:18:09.948Z,10.70
2023-04-21T00:20:37.206Z,10.50
2023-04-21T00:23:04.324Z,10.50
2023-04-21T00:25:31.469Z,10.40
2023-04-21T00:27:58.733Z,10.30
2023-04-21T00:30:25.852Z,10.20
2023-04-21T00:32:52.944Z,10.10
2023-04-21T00:35:20.000Z,10.00
2023-04-21T00:37:47.133Z,9.90
2023-04-21T00:40:15.248Z,9.90
2023-04-21T00:42:44.853Z,9.70
2023-04-21T00:45:12.222Z,9.70
2023-04-21T00:47:39.242Z,9.50
2023-04-21T00:50:06.651Z,9.60
2023-04-21T00:52:35.092Z,9.50
2023-04-21T00:55:02.668Z,9.90
2023-04-21T00:57:32.265Z,10.10
2023-04-21T00:59:59.306Z,10.30
2023-04-21T01:02:26.640Z,10.40
2023-04-21T01:04:53.826Z,10.40
2023-04-21T01:07:21.049Z,10.10
2023-04-21T01:09:48.230Z,9.90
2023-04-21T01:12:15.400Z,9.90
2023-04-21T01:14:42.561Z,9.90
2023-04-21T01:17:10.635Z,9.70
2023-04-21T01:19:42.979Z,9.70
2023-04-21T01:22:11.318Z,9.80
2023-04-21T01:24:47.549Z,9.30
2023-04-21T01:27:19.050Z,9.10
2023-04-21T01:29:48.049Z,9.10
2023-04-21T01:32:21.015Z,9.00
2023-04-21T01:34:48.873Z,9.00
2023-04-21T01:37:23.476Z,9.00
2023-04-21T01:39:54.672Z,8.80
2023-04-21T01:42:24.039Z,9.00
2023-04-21T01:44:53.808Z,9.10
2023-04-21T01:47:21.815Z,9.10
2023-04-21T01:49:48.960Z,9.20
2023-04-21T01:52:16.191Z,9.20
2023-04-21T01:54:43.285Z,9.10
2023-04-21T01:57:10.604Z,9.20
2023-04-21T01:59:38.118Z,9.00
2023-04-21T02:02:05.634Z,9.00
2023-04-21T02:04:33.029Z,8.80
2023-04-21T02:07:00.488Z,8.80
2023-04-21T02:09:27.853Z,8.70
2023-04-21T02:11:57.880Z,8.90
2023-04-21T02:14:26.116Z,8.80
2023-04-21T02:16:53.409Z,8.80
2023-04-21T02:19:20.770Z,8.80
2023-04-21T02:21:48.111Z,8.70
2023-04-21T02:24:15.166Z,8.80
2023-04-21T02:26:42.191Z,8.80
2023-04-21T02:29:09.186Z,8.80
2023-04-21T02:31:46.133Z,8.80
2023-04-21T02:34:22.013Z,8.70
2023-04-21T02:36:49.069Z,8.80
2023-04-21T02:39:16.416Z,9.10
2023-04-21T02:41:43.545Z,9.10
2023-04-21T02:44:10.540Z,8.90
2023-04-21T02:46:43.425Z,9.10
2023-04-21T02:49:10.959Z,8.80
2023-04-21T02:51:37.933Z,8.90
2023-04-21T02:54:05.905Z,9.10
2023-04-21T02:56:34.788Z,9.00
2023-04-21T02:59:02.082Z,9.00
2023-04-21T03:01:29.143Z,9.00
2023-04-21T03:03:56.614Z,9.00
2023-04-21T03:06:23.683Z,9.30
2023-04-21T03:08:50.689Z,9.50
2023-04-21T03:11:17.823Z,10.00
2023-04-21T03:13:44.865Z,9.90
2023-04-21T03:16:11.916Z,9.70
2023-04-21T03:18:38.983Z,9.80
2023-04-21T03:21:06.062Z,10.10
2023-04-21T03:23:33.120Z,10.20
2023-04-21T03:26:00.385Z,10.70
2023-04-21T03:28:27.475Z,10.30
2023-04-21T03:30:54.562Z,10.00
2023-04-21T03:33:21.701Z,10.00
2023-04-21T03:35:48.864Z,10.00
2023-04-21T03:38:16.033Z,9.80
2023-04-21T03:40:43.045Z,9.70
2023-04-21T03:43:10.103Z,9.60
2023-04-21T03:45:37.133Z,9.70
2023-04-21T03:48:04.664Z,9.80
2023-04-21T03:50:31.788Z,10.10
2023-04-21T03:52:58.801Z,10.30
2023-04-21T03:55:25.906Z,10.00
2023-04-21T03:58:11.701Z,10.20
2023-04-21T04:00:38.693Z,10.40
2023-04-21T04:03:05.948Z,11.00
2023-04-21T04:05:33.301Z,11.20
2023-04-21T04:08:00.541Z,10.90
2023-04-21T04:10:27.685Z,10.50
2023-04-21T04:12:55.459Z,10.40
2023-04-21T04:15:22.542Z,10.20
2023-04-21T04:17:49.589Z,10.80
2023-04-21T04:20:16.930Z,10.80
2023-04-21T04:22:44.106Z,10.70
2023-04-21T04:25:12.939Z,10.80
2023-04-21T04:27:39.991Z,10.80
2023-04-21T04:30:07.757Z,11.00
2023-04-21T04:32:34.889Z,11.20
2023-04-21T04:35:02.626Z,10.90
2023-04-21T04:37:31.890Z,11.30
2023-04-21T04:39:59.746Z,11.30
2023-04-21T04:42:26.888Z,11.30
2023-04-21T04:44:54.395Z,11.10
2023-04-21T04:47:21.922Z,11.40
2023-04-21T04:49:48.939Z,11.20
2023-04-21T04:52:16.172Z,11.00
2023-04-21T04:54:43.212Z,11.40
2023-04-21T04:57:10.497Z,11.60
2023-04-21T04:59:37.538Z,11.60
2023-04-21T05:02:04.684Z,11.40
2023-04-21T05:04:32.513Z,11.90
2023-04-21T05:06:59.869Z,11.90
2023-04-21T05:09:27.286Z,12.00
2023-04-21T05:11:54.334Z,12.50
2023-04-21T05:14:21.610Z,12.00
2023-04-21T05:16:48.882Z,11.80
2023-04-21T05:19:18.116Z,11.50
2023-04-21T05:21:46.022Z,12.40
2023-04-21T05:24:13.099Z,12.70
2023-04-21T05:26:59.222Z,11.90
2023-04-21T05:29:26.293Z,12.20
2023-04-21T05:31:53.443Z,13.20
2023-04-21T05:34:20.835Z,13.00
2023-04-21T05:36:49.121Z,13.40
2023-04-21T05:39:17.836Z,13.20
2023-04-21T05:41:44.910Z,13.00
2023-04-21T05:44:12.066Z,12.70
2023-04-21T05:46:39.162Z,13.30
2023-04-21T05:49:06.826Z,14.10
2023-04-21T05:51:33.907Z,13.80
2023-04-21T05:54:00.998Z,13.50
2023-04-21T05:56:28.175Z,13.60
2023-04-21T05:58:55.309Z,14.00
2023-04-21T06:01:40.673Z,13.80
2023-04-21T06:04:08.015Z,13.20
2023-04-21T06:06:36.135Z,13.70
2023-04-21T06:09:22.028Z,14.10
2023-04-21T06:11:50.666Z,14.30
2023-04-21T06:14:17.737Z,14.70
2023-04-21T06:16:45.660Z,14.40
2023-04-21T06:19:12.819Z,14.90
2023-04-21T06:21:39.776Z,14.80
2023-04-21T06:24:26.020Z,14.40
2023-04-21T06:26:53.639Z,14.70
2023-04-21T06:29:21.173Z,14.30
2023-04-21T06:31:48.566Z,14.40
2023-04-21T06:34:16.333Z,14.60
2023-04-21T06:36:43.717Z,14.90
2023-04-21T06:39:11.058Z,15.20
2023-04-21T06:41:38.153Z,15.10
2023-04-21T06:44:23.699Z,15.10
2023-04-21T06:46:50.796Z,15.20
2023-04-21T06:49:18.116Z,15.60
2023-04-21T06:51:46.390Z,15.80
2023-04-21T06:54:14.211Z,15.80
2023-04-21T06:56:43.008Z,16.00
2023-04-21T06:59:10.549Z,16.30
2023-04-21T07:01:37.596Z,16.70
2023-04-21T07:04:06.892Z,16.10
2023-04-21T07:06:34.148Z,15.70
2023-04-21T07:09:01.211Z,15.50
2023-04-21T07:11:28.818Z,15.70
2023-04-21T07:13:56.001Z,16.10
2023-04-21T07:16:24.629Z,15.80
2023-04-21T07:19:10.433Z,15.90
2023-04-21T07:21:37.441Z,16.30
2023-04-21T07:24:05.772Z,17.40
2023-04-21T07:26:34.470Z,17.60
2023-04-21T07:29:20.194Z,17.40
2023-04-21T07:31:48.391Z,16.70
2023-04-21T07:34:16.214Z,17.00
2023-04-21T07:36:43.250Z,17.30
2023-04-21T07:39:10.699Z,16.70
2023-04-21T07:41:37.736Z,16.60
2023-04-21T07:44:05.029Z,16.60
2023-04-21T07:46:32.795Z,16.20
2023-04-21T07:49:02.813Z,17.00
2023-04-21T07:51:32.095Z,16.40
2023-04-21T07:53:59.189Z,16.30
2023-04-21T07:56:26.303Z,16.90
2023-04-21T07:58:53.354Z,17.80
2023-04-21T08:01:21.156Z,17.00
2023-04-21T08:03:48.868Z,16.90
2023-04-21T08:06:16.357Z,16.50
2023-04-21T08:08:43.801Z,16.60
2023-04-21T08:11:11.182Z,17.10
2023-04-21T08:13:38.335Z,17.10
2023-04-21T08:16:24.169Z,18.10
2023-04-21T08:18:51.301Z,18.60
2023-04-21T08:21:18.515Z,19.30
2023-04-21T08:23:45.588Z,19.60
2023-04-21T08:26:13.377Z,19.90
2023-04-21T08:28:40.646Z,19.90
2023-04-21T08:31:07.920Z,20.30
2023-04-21T08:33:35.525Z,20.70
2023-04-21T08:36:10.088Z,21.30
2023-04-21T08:38:45.661Z,21.00
2023-04-21T08:41:13.501Z,21.20
2023-04-21T08:43:40.579Z,19.90
2023-04-21T08:46:09.140Z,20.00
2023-04-21T08:48:39.690Z,20.50
2023-04-21T08:51:10.405Z,21.90
2023-04-21T08:53:38.562Z,22.10
2023-04-21T08:58:54.870Z,20.00
2023-04-21T09:01:22.059Z,22.20
2023-04-21T09:03:49.374Z,21.70
2023-04-21T09:06:17.158Z,22.00
2023-04-21T09:08:53.933Z,22.30
2023-04-21T09:11:21.120Z,21.10
2023-04-21T09:13:48.159Z,22.10
2023-04-21T09:16:23.076Z,22.10
2023-04-21T09:18:50.744Z,22.20
2023-04-21T09:21:19.263Z,23.60
2023-04-21T09:23:53.253Z,21.90
2023-04-21T09:26:39.066Z,21.90
2023-04-21T09:29:07.950Z,22.20
2023-04-21T09:31:36.382Z,22.10
2023-04-21T09:34:16.716Z,22.70
2023-04-21T09:36:44.697Z,21.70
2023-04-21T09:39:34.439Z,23.20
2023-04-21T09:42:00.142Z,23.60
2023-04-21T09:44:27.453Z,22.50
2023-04-21T09:47:04.769Z,22.90
2023-04-21T09:49:36.677Z,24.60
2023-04-21T09:54:36.628Z,25.50
2023-04-21T09:57:06.455Z,22.50
2023-04-21T09:59:56.368Z,22.00
2023-04-21T10:02:29.463Z,21.90
2023-04-21T10:04:57.011Z,21.10
2023-04-21T10:07:44.113Z,23.70
2023-04-21T10:10:26.076Z,22.90
2023-04-21T10:12:53.780Z,24.40
2023-04-21T10:15:39.733Z,22.10
2023-04-21T10:18:22.204Z,22.60
2023-04-21T10:20:53.769Z,24.90
2023-04-21T10:23:31.547Z,25.70
2023-04-21T10:26:07.276Z,23.80
2023-04-21T10:28:53.229Z,25.80
2023-04-21T10:31:38.572Z,24.30
2023-04-21T10:34:09.345Z,23.90
2023-04-21T10:36:46.934Z,23.00
2023-04-21T10:39:36.784Z,21.50
2023-04-21T10:42:15.623Z,23.50
2023-04-21T10:44:52.109Z,23.80
2023-04-21T10:47:49.867Z,23.10
2023-04-21T10:50:25.926Z,22.40
2023-04-21T10:52:56.099Z,23.60
2023-04-21T10:55:27.315Z,24.90
2023-04-21T10:57:54.655Z,25.40
2023-04-21T11:00:24.057Z,24.00
2023-04-21T11:03:17.456Z,23.40
2023-04-21T11:05:44.671Z,24.40
2023-04-21T11:08:14.671Z,24.90
2023-04-21T11:10:48.336Z,26.70
2023-04-21T11:13:15.620Z,23.90
2023-04-21T11:15:42.661Z,24.80
2023-04-21T11:18:09.991Z,26.20
2023-04-21T11:20:41.949Z,26.90
2023-04-21T11:23:08.945Z,23.30
2023-04-21T11:25:36.625Z,23.60
2023-04-21T11:28:04.641Z,20.70
2023-04-21T11:30:34.304Z,19.70
2023-04-21T11:33:01.909Z,19.90
2023-04-21T11:35:29.365Z,23.30
2023-04-21T11:37:57.028Z,25.60
2023-04-21T11:40:24.808Z,26.90
2023-04-21T11:42:52.678Z,25.10
2023-04-21T11:45:38.293Z,25.30
2023-04-21T11:48:19.738Z,23.00
2023-04-21T11:50:50.858Z,24.00
2023-04-21T11:53:37.526Z,25.00
2023-04-21T11:56:05.421Z,24.80
2023-04-21T11:58:32.601Z,23.70
2023-04-21T12:01:08.213Z,23.20
2023-04-21T12:03:36.266Z,22.90
2023-04-21T12:06:03.486Z,23.90
2023-04-21T12:08:32.038Z,24.20
2023-04-21T12:10:59.802Z,25.40
2023-04-21T12:13:31.386Z,26.60
2023-04-21T12:15:58.692Z,23.50
2023-04-21T12:18:44.555Z,24.80
2023-04-21T12:21:16.035Z,26.10
2023-04-21T12:23:44.802Z,25.00
2023-04-21T12:26:12.671Z,25.30
2023-04-21T12:28:40.128Z,26.80
2023-04-21T12:31:07.521Z,27.10
2023-04-21T12:33:53.353Z,26.80
2023-04-21T12:36:20.802Z,24.10
2023-04-21T12:38:48.041Z,22.20
2023-04-21T12:41:15.078Z,24.20
2023-04-21T12:43:42.222Z,25.50
2023-04-21T12:46:09.361Z,25.30
2023-04-21T12:48:36.437Z,23.90
2023-04-21T12:51:03.504Z,22.60
2023-04-21T12:53:31.295Z,23.90
2023-04-21T12:56:04.772Z,23.90
2023-04-21T12:58:32.424Z,24.90
2023-04-21T13:00:59.769Z,25.40
2023-04-21T13:03:27.284Z,22.90
2023-04-21T13:05:54.422Z,23.60
2023-04-21T13:08:24.481Z,22.90
2023-04-21T13:10:52.858Z,23.70
2023-04-21T13:13:21.711Z,25.50
2023-04-21T13:16:07.678Z,26.10
2023-04-21T13:18:40.493Z,24.40
2023-04-21T13:21:07.695Z,25.40
2023-04-21T13:23:53.885Z,22.30
2023-04-21T13:26:21.646Z,24.00
2023-04-21T13:28:48.712Z,24.40
2023-04-21T13:31:16.023Z,23.80
2023-04-21T13:33:43.219Z,22.60
2023-04-21T13:36:12.850Z,22.90
2023-04-21T13:38:41.300Z,22.90
2023-04-21T13:41:08.827Z,22.90
2023-04-21T13:43:36.302Z,23.20
2023-04-21T13:46:03.668Z,22.90
2023-04-21T13:48:30.872Z,22.70
2023-04-21T13:51:16.916Z,23.70
2023-04-21T13:53:44.074Z,24.70
2023-04-21T13:56:11.937Z,22.80
2023-04-21T13:58:38.979Z,22.10
2023-04-21T14:01:06.212Z,22.90
2023-04-21T14:03:33.422Z,21.40
2023-04-21T14:06:00.665Z,21.60
2023-04-21T14:08:27.690Z,23.10
2023-04-21T14:10:54.734Z,22.00
2023-04-21T14:13:33.726Z,21.30
2023-04-21T14:16:03.114Z,22.30
2023-04-21T14:18:30.466Z,22.90
2023-04-21T14:20:57.526Z,23.00
2023-04-21T14:24:02.014Z,24.30
2023-04-21T14:26:29.111Z,23.80
2023-04-21T14:28:56.588Z,23.60
2023-04-21T14:31:23.730Z,21.90
2023-04-21T14:33:50.924Z,22.90
2023-04-21T14:36:18.186Z,23.60
2023-04-21T14:38:45.450Z,22.60
2023-04-21T14:41:31.913Z,21.10
2023-04-21T14:44:00.540Z,22.00
2023-04-21T14:46:29.225Z,20.30
2023-04-21T14:48:57.682Z,21.40
2023-04-21T14:51:24.936Z,21.50
2023-04-21T14:53:52.246Z,18.80
2023-04-21T14:56:19.565Z,18.20
2023-04-21T14:58:46.594Z,18.00
2023-04-21T15:01:14.255Z,19.80
2023-04-21T15:03:42.414Z,20.20
2023-04-21T15:06:09.999Z,21.80
2023-04-21T15:08:37.278Z,22.70
2023-04-21T15:11:05.395Z,21.20
2023-04-21T15:13:33.260Z,19.60
2023-04-21T15:16:00.465Z,18.70
2023-04-21T15:18:46.605Z,18.60
2023-04-21T15:21:14.037Z,18.20
2023-04-21T15:23:41.033Z,18.10
2023-04-21T15:26:09.644Z,17.70
2023-04-21T15:28:55.597Z,17.40
2023-04-21T15:31:22.970Z,17.70
2023-04-21T15:34:08.757Z,17.40
2023-04-21T15:36:36.349Z,17.40
2023-04-21T15:39:04.104Z,17.30
2023-04-21T15:41:31.752Z,17.60
2023-04-21T15:44:00.090Z,17.20
2023-04-21T15:46:27.351Z,17.50
2023-04-21T15:48:54.521Z,17.40
2023-04-21T15:51:21.945Z,17.00
2023-04-21T15:53:49.517Z,17.20
2023-04-21T15:56:17.251Z,17.10
2023-04-21T15:58:44.515Z,17.10
2023-04-21T16:01:12.425Z,16.80
2023-04-21T16:03:40.502Z,16.90
2023-04-21T16:06:08.077Z,16.50
2023-04-21T16:08:35.334Z,16.80
2023-04-21T16:11:02.502Z,16.60
2023-04-21T16:13:29.811Z,16.30
2023-04-21T16:15:57.041Z,16.40
2023-04-21T16:18:43.285Z,15.80
2023-04-21T16:21:10.803Z,16.20
2023-04-21T16:23:38.593Z,15.80
2023-04-21T16:26:06.546Z,15.70
2023-04-21T16:28:33.575Z,15.70
2023-04-21T16:31:00.747Z,15.70
2023-04-21T16:33:47.057Z,15.70
2023-04-21T16:36:32.883Z,15.70
2023-04-21T16:39:00.230Z,16.00
2023-04-21T16:41:27.450Z,15.90
2023-04-21T16:43:54.649Z,16.20
2023-04-21T16:46:22.166Z,16.20
2023-04-21T16:48:49.359Z,15.70
2023-04-21T16:51:16.676Z,16.10
2023-04-21T16:53:43.998Z,15.80
2023-04-21T16:56:11.249Z,15.80
2023-04-21T16:58:38.990Z,16.00
2023-04-21T17:01:07.789Z,15.60
2023-04-21T17:03:35.083Z,15.50
2023-04-21T17:06:04.707Z,15.40
2023-04-21T17:08:31.753Z,15.20
2023-04-21T17:11:00.122Z,15.30
2023-04-21T17:13:27.395Z,15.30
2023-04-21T17:16:13.220Z,15.70
2023-04-21T17:18:40.326Z,15.30
2023-04-21T17:21:07.371Z,15.50
2023-04-21T17:23:34.401Z,15.70
2023-04-21T17:26:21.144Z,15.70
2023-04-21T17:28:49.167Z,15.50
2023-04-21T17:31:16.668Z,15.70
2023-04-21T17:33:45.046Z,15.50
2023-04-21T17:36:12.632Z,15.60
2023-04-21T17:38:39.953Z,15.30
2023-04-21T17:41:07.856Z,15.30
2023-04-21T17:43:35.239Z,15.00
2023-04-21T17:46:02.275Z,15.00
2023-04-21T17:48:29.478Z,15.10
2023-04-21T17:50:56.514Z,15.40
2023-04-21T17:53:23.810Z,15.40
2023-04-21T17:55:51.202Z,15.40
2023-04-21T17:58:18.721Z,15.00
2023-04-21T18:00:46.950Z,15.10
2023-04-21T18:03:14.238Z,15.10
2023-04-21T18:05:41.369Z,15.20
2023-04-21T18:08:08.559Z,14.80
2023-04-21T18:10:36.973Z,14.70
2023-04-21T18:13:04.091Z,14.40
2023-04-21T18:15:31.402Z,14.50
2023-04-21T18:17:58.729Z,14.60
2023-04-21T18:20:26.077Z,14.60
2023-04-21T18:22:54.299Z,14.70
2023-04-21T18:25:38.349Z,14.80
2023-04-21T18:29:04.695Z,14.70
2023-04-21T18:31:32.772Z,15.10
2023-04-21T18:34:00.410Z,14.60
2023-04-21T18:36:46.372Z,14.60
2023-04-21T18:39:13.418Z,14.40
2023-04-21T18:41:40.877Z,14.50
2023-04-21T18:44:08.048Z,14.90
2023-04-21T18:46:35.392Z,15.00
2023-04-21T18:49:02.620Z,14.40
2023-04-21T18:51:31.478Z,14.20
2023-04-21T18:53:58.738Z,14.40
2023-04-21T18:56:26.617Z,14.50
2023-04-21T18:58:53.942Z,14.50
2023-04-21T19:01:21.074Z,14.20
2023-04-21T19:03:48.461Z,14.20
2023-04-21T19:06:15.803Z,14.30
2023-04-21T19:08:43.228Z,14.00
2023-04-21T19:11:12.034Z,14.00
2023-04-21T19:13:39.411Z,14.30
2023-04-21T19:16:08.583Z,14.00
2023-04-21T19:18:35.749Z,14.10
2023-04-21T19:21:04.677Z,14.30
2023-04-21T19:23:31.736Z,14.20
2023-04-21T19:26:00.080Z,14.50
2023-04-21T19:28:27.199Z,14.30
2023-04-21T19:30:54.196Z,14.40
2023-04-21T19:33:21.278Z,14.10
2023-04-21T19:35:48.468Z,13.80
2023-04-21T19:38:16.066Z,14.10
2023-04-21T19:40:45.039Z,14.10
2023-04-21T19:43:13.078Z,14.20
2023-04-21T19:45:40.157Z,14.10
2023-04-21T19:48:07.820Z,14.00
2023-04-21T19:50:36.949Z,13.90
2023-04-21T19:53:04.385Z,13.70
2023-04-21T19:55:32.188Z,13.30
2023-04-21T19:57:59.288Z,13.50
2023-04-21T20:00:26.338Z,13.20
2023-04-21T20:02:53.695Z,13.30
2023-04-21T20:05:20.954Z,13.40
2023-04-21T20:07:47.954Z,13.30
2023-04-21T20:10:14.980Z,13.40
2023-04-21T20:12:41.969Z,13.10
2023-04-21T20:15:09.555Z,13.30
2023-04-21T20:17:37.039Z,13.30
2023-04-21T20:20:05.522Z,12.90
2023-04-21T20:22:32.550Z,12.90
2023-04-21T20:24:59.697Z,13.00
2023-04-21T20:27:27.122Z,12.90
2023-04-21T20:29:54.274Z,12.80
2023-04-21T20:32:21.435Z,12.80
2023-04-21T20:34:48.635Z,12.80
2023-04-21T20:37:16.250Z,12.90
2023-04-21T20:39:43.289Z,12.90
2023-04-21T20:42:13.618Z,12.70
2023-04-21T20:44:42.805Z,12.70
2023-04-21T20:47:11.790Z,13.00
2023-04-21T20:49:40.051Z,13.20
2023-04-21T20:52:07.331Z,12.90
2023-04-21T20:54:34.984Z,12.80
2023-04-21T20:57:02.500Z,12.70
2023-04-21T20:59:29.842Z,12.80
2023-04-21T21:01:56.931Z,13.00
2023-04-21T21:04:24.339Z,12.70
2023-04-21T21:06:51.500Z,12.50
2023-04-21T21:09:19.155Z,12.80
2023-04-21T21:11:46.434Z,13.10
2023-04-21T21:14:13.696Z,13.00
2023-04-21T21:16:41.071Z,12.70
2023-04-21T21:19:08.135Z,12.60
2023-04-21T21:21:35.410Z,12.60
2023-04-21T21:24:02.446Z,12.40
2023-04-21T21:26:29.726Z,12.60
2023-04-21T21:28:57.432Z,12.80
2023-04-21T21:31:25.705Z,12.70
2023-04-21T21:33:52.881Z,12.60
2023-04-21T21:36:19.953Z,12.40
2023-04-21T21:38:47.013Z,12.50
2023-04-21T21:41:14.827Z,12.50
2023-04-21T21:43:42.171Z,12.50
2023-04-21T21:46:09.263Z,12.60
2023-04-21T21:48:36.489Z,12.50
2023-04-21T21:51:05.417Z,12.50
2023-04-21T21:53:32.980Z,12.30
2023-04-21T21:56:00.610Z,12.20
2023-04-21T21:58:27.740Z,12.10
2023-04-21T22:00:55.278Z,12.30
2023-04-21T22:03:22.842Z,12.40
2023-04-21T22:05:50.056Z,12.20
2023-04-21T22:08:17.101Z,12.20
2023-04-21T22:10:44.463Z,12.10
2023-04-21T22:13:12.069Z,11.90
2023-04-21T22:15:39.432Z,11.90
2023-04-21T22:18:08.065Z,11.90
2023-04-21T22:20:35.809Z,12.00
2023-04-21T22:23:04.270Z,11.80
2023-04-21T22:25:31.741Z,11.80
2023-04-21T22:27:58.898Z,11.60
2023-04-21T22:30:26.124Z,11.60
2023-04-21T22:32:53.361Z,11.50
2023-04-21T22:35:20.975Z,11.70
2023-04-21T22:37:48.059Z,11.50
2023-04-21T22:40:15.126Z,11.50
2023-04-21T22:42:42.509Z,11.70
2023-04-21T22:45:09.914Z,11.70
2023-04-21T22:47:37.007Z,11.90
2023-04-21T22:50:04.534Z,11.90
2023-04-21T22:52:31.795Z,11.60
2023-04-21T22:54:58.918Z,11.40
2023-04-21T22:57:26.121Z,11.50
2023-04-21T22:59:53.542Z,11.50
2023-04-21T23:02:20.674Z,11.60
2023-04-21T23:04:47.913Z,11.60
2023-04-21T23:07:14.948Z,11.40
2023-04-21T23:09:41.986Z,11.40
2023-04-21T23:12:09.099Z,11.20
2023-04-21T23:14:36.229Z,11.10
2023-04-21T23:17:03.502Z,11.00
2023-04-21T23:19:30.684Z,10.90
2023-04-21T23:21:57.943Z,10.80
2023-04-21T23:24:24.997Z,10.70
2023-04-21T23:26:51.985Z,10.60
2023-04-21T23:29:19.020Z,10.60
2023-04-21T23:31:46.463Z,10.60
2023-04-21T23:34:15.002Z,10.70
2023-04-21T23:36:42.039Z,10.60
2023-04-21T23:39:09.986Z,10.60
2023-04-21T23:41:37.496Z,10.80
2023-04-21T23:44:04.517Z,11.10
2023-04-21T23:46:31.865Z,10.80
2023-04-21T23:48:58.987Z,10.60
2023-04-21T23:51:27.067Z,10.70
2023-04-21T23:53:54.318Z,10.80
2023-04-21T23:56:21.500Z,10.60
2023-04-21T23:58:48.538Z,10.40
